createdAt,value
2022-11-02T00:01:26.619Z,15.06
2022-11-02T00:03:53.089Z,15.09
2022-11-02T00:06:19.756Z,15.16
2022-11-02T00:08:46.235Z,15.13
2022-11-02T00:11:12.627Z,15.10
2022-11-02T00:13:39.074Z,15.03
2022-11-02T00:16:10.030Z,15.12
2022-11-02T00:18:37.002Z,15.10
2022-11-02T00:21:04.739Z,15.01
2022-11-02T00:23:32.461Z,15.03
2022-11-02T00:26:02.494Z,15.14
2022-11-02T00:28:30.670Z,14.97
2022-11-02T00:30:57.637Z,15.00
2022-11-02T00:33:24.228Z,14.85
2022-11-02T00:35:50.619Z,14.78
2022-11-02T00:38:17.016Z,14.71
2022-11-02T00:40:43.497Z,14.55
2022-11-02T00:43:09.915Z,14.62
2022-11-02T00:45:36.322Z,14.60
2022-11-02T00:48:03.331Z,14.61
2022-11-02T00:50:30.138Z,14.57
2022-11-02T00:52:56.570Z,14.57
2022-11-02T00:55:23.456Z,14.49
2022-11-02T00:57:50.423Z,14.56
2022-11-02T01:00:17.103Z,14.60
2022-11-02T01:02:43.635Z,14.66
2022-11-02T01:05:11.271Z,14.70
2022-11-02T01:07:37.837Z,14.75
2022-11-02T01:10:08.694Z,14.77
2022-11-02T01:12:39.015Z,14.80
2022-11-02T01:15:08.014Z,14.84
2022-11-02T01:17:34.889Z,14.90
2022-11-02T01:20:01.482Z,14.91
2022-11-02T01:22:27.901Z,14.86
2022-11-02T01:24:54.431Z,14.87
2022-11-02T01:27:20.994Z,14.93
2022-11-02T01:29:47.418Z,14.91
2022-11-02T01:32:13.868Z,14.88
2022-11-02T01:34:40.366Z,14.94
2022-11-02T01:37:06.834Z,14.92
2022-11-02T01:39:33.306Z,14.99
2022-11-02T01:41:59.795Z,14.95
2022-11-02T01:44:34.895Z,14.85
2022-11-02T01:47:12.720Z,14.99
2022-11-02T01:49:43.102Z,14.90
2022-11-02T01:52:14.967Z,14.87
2022-11-02T01:54:45.898Z,14.90
2022-11-02T01:57:14.961Z,14.89
2022-11-02T01:59:49.971Z,14.86
2022-11-02T02:02:23.997Z,14.83
2022-11-02T02:05:05.799Z,14.79
2022-11-02T02:07:34.993Z,14.87
2022-11-02T02:10:02.016Z,14.82
2022-11-02T02:12:31.281Z,14.82
2022-11-02T02:14:59.616Z,14.87
2022-11-02T02:17:39.837Z,14.90
2022-11-02T02:20:28.464Z,14.91
2022-11-02T02:23:13.250Z,14.91
2022-11-02T02:25:39.699Z,14.92
2022-11-02T02:28:15.769Z,14.96
2022-11-02T02:30:51.759Z,14.88
2022-11-02T02:33:27.361Z,14.88
2022-11-02T02:36:19.106Z,14.87
2022-11-02T02:38:55.062Z,14.84
2022-11-02T02:41:29.907Z,14.76
2022-11-02T02:43:58.671Z,14.69
2022-11-02T02:46:42.784Z,14.74
2022-11-02T02:49:14.191Z,14.74
2022-11-02T02:51:41.682Z,14.72
2022-11-02T02:54:14.883Z,14.66
2022-11-02T02:59:25.962Z,14.80
2022-11-02T03:01:54.506Z,14.80
2022-11-02T03:04:21.067Z,14.84
2022-11-02T03:06:52.223Z,14.78
2022-11-02T03:09:41.620Z,14.83
2022-11-02T03:12:42.149Z,14.78
2022-11-02T03:15:11.811Z,14.83
2022-11-02T03:17:49.526Z,14.82
2022-11-02T03:20:21.237Z,14.85
2022-11-02T03:23:06.561Z,14.84
2022-11-02T03:26:02.124Z,14.88
2022-11-02T03:28:53.447Z,14.88
2022-11-02T03:31:34.970Z,14.89
2022-11-02T03:34:16.582Z,14.84
2022-11-02T03:37:01.418Z,14.75
2022-11-02T03:39:46.130Z,14.85
2022-11-02T03:42:15.813Z,14.82
2022-11-02T03:44:50.545Z,14.90
2022-11-02T03:47:20.400Z,14.95
2022-11-02T03:49:50.271Z,14.95
2022-11-02T03:52:24.857Z,14.94
2022-11-02T03:55:04.740Z,14.89
2022-11-02T03:57:46.190Z,14.85
2022-11-02T04:00:18.473Z,14.87
2022-11-02T04:02:51.591Z,14.85
2022-11-02T04:05:19.600Z,14.85
2022-11-02T04:08:09.031Z,14.90
2022-11-02T04:10:35.471Z,14.78
2022-11-02T04:13:26.589Z,14.74
2022-11-02T04:15:52.978Z,14.74
2022-11-02T04:18:37.753Z,14.73
2022-11-02T04:21:04.256Z,14.78
2022-11-02T04:23:50.635Z,14.76
2022-11-02T04:26:17.018Z,14.74
2022-11-02T04:28:43.399Z,14.73
2022-11-02T04:31:12.972Z,14.65
2022-11-02T04:33:42.334Z,14.63
2022-11-02T04:36:08.954Z,14.60
2022-11-02T04:38:40.994Z,14.58
2022-11-02T04:41:34.164Z,14.55
2022-11-02T04:44:01.061Z,14.58
2022-11-02T04:46:30.035Z,14.56
2022-11-02T04:48:57.019Z,14.49
2022-11-02T04:51:25.689Z,14.56
2022-11-02T04:53:58.012Z,14.53
2022-11-02T04:56:29.035Z,14.61
2022-11-02T04:59:02.226Z,14.62
2022-11-02T05:01:30.413Z,14.61
2022-11-02T05:03:56.977Z,14.57
2022-11-02T05:06:23.972Z,14.58
2022-11-02T05:08:50.707Z,14.47
2022-11-02T05:11:19.380Z,14.41
2022-11-02T05:13:46.433Z,14.53
2022-11-02T05:16:15.678Z,14.52
2022-11-02T05:18:46.557Z,14.43
2022-11-02T05:21:16.929Z,14.46
2022-11-02T05:23:43.353Z,14.43
2022-11-02T05:26:12.326Z,14.39
2022-11-02T05:28:39.169Z,14.37
2022-11-02T05:31:05.963Z,14.37
2022-11-02T05:33:33.183Z,14.29
2022-11-02T05:36:00.053Z,14.32
2022-11-02T05:38:30.065Z,14.23
2022-11-02T05:40:59.979Z,14.25
2022-11-02T05:43:26.723Z,14.40
2022-11-02T05:46:06.329Z,14.36
2022-11-02T05:48:33.420Z,14.29
2022-11-02T05:51:03.690Z,14.18
2022-11-02T05:53:32.529Z,14.25
2022-11-02T05:56:00.757Z,14.20
2022-11-02T05:58:28.488Z,14.15
2022-11-02T06:00:58.265Z,14.04
2022-11-02T06:03:24.670Z,14.09
2022-11-02T06:05:58.589Z,14.17
2022-11-02T06:08:28.428Z,13.98
2022-11-02T06:10:54.906Z,14.12
2022-11-02T06:13:21.322Z,14.03
2022-11-02T06:15:47.879Z,13.97
2022-11-02T06:18:14.347Z,14.08
2022-11-02T06:20:43.539Z,14.00
2022-11-02T06:23:09.924Z,13.91
2022-11-02T06:25:36.306Z,13.99
2022-11-02T06:28:02.716Z,13.98
2022-11-02T06:30:29.155Z,14.11
2022-11-02T06:32:55.737Z,14.10
2022-11-02T06:35:22.993Z,14.16
2022-11-02T06:37:49.531Z,14.07
2022-11-02T06:40:16.351Z,14.24
2022-11-02T06:42:45.202Z,14.13
2022-11-02T06:45:23.519Z,14.03
2022-11-02T06:47:49.994Z,14.13
2022-11-02T06:50:16.820Z,14.11
2022-11-02T06:52:47.253Z,14.11
2022-11-02T06:55:15.336Z,14.10
2022-11-02T06:57:44.750Z,14.08
2022-11-02T07:00:15.564Z,13.96
2022-11-02T07:02:59.940Z,14.05
2022-11-02T07:05:26.401Z,14.03
2022-11-02T07:07:53.471Z,14.11
2022-11-02T07:10:20.031Z,14.11
2022-11-02T07:12:46.473Z,13.99
2022-11-02T07:15:14.023Z,14.09
2022-11-02T07:17:41.207Z,14.12
2022-11-02T07:20:10.616Z,14.16
2022-11-02T07:22:37.732Z,14.06
2022-11-02T07:25:04.723Z,14.25
2022-11-02T07:27:31.221Z,14.19
2022-11-02T07:29:58.261Z,14.07
2022-11-02T07:32:25.764Z,14.18
2022-11-02T07:34:52.382Z,14.23
2022-11-02T07:37:18.852Z,14.21
2022-11-02T07:39:45.353Z,14.34
2022-11-02T07:42:11.864Z,14.39
2022-11-02T07:44:38.952Z,14.37
2022-11-02T07:47:05.687Z,14.24
2022-11-02T07:49:32.473Z,14.28
2022-11-02T07:51:58.910Z,14.20
2022-11-02T07:54:26.554Z,14.32
2022-11-02T07:56:53.360Z,14.32
2022-11-02T07:59:19.761Z,14.33
2022-11-02T08:01:46.324Z,14.36
2022-11-02T08:04:12.961Z,14.36
2022-11-02T08:06:39.520Z,14.33
2022-11-02T08:09:05.953Z,14.35
2022-11-02T08:11:32.347Z,14.42
2022-11-02T08:13:59.186Z,14.28
2022-11-02T08:16:25.669Z,14.34
2022-11-02T08:18:52.115Z,14.29
2022-11-02T08:21:18.627Z,14.47
2022-11-02T08:23:45.076Z,14.41
2022-11-02T08:26:12.022Z,14.38
2022-11-02T08:28:40.253Z,14.49
2022-11-02T08:31:12.470Z,14.33
2022-11-02T08:33:38.922Z,14.42
2022-11-02T08:36:05.601Z,14.20
2022-11-02T08:38:32.474Z,14.38
2022-11-02T08:40:58.894Z,14.31
2022-11-02T08:43:25.434Z,14.26
2022-11-02T08:46:13.825Z,14.08
2022-11-02T08:48:38.284Z,14.40
2022-11-02T08:51:05.733Z,14.43
2022-11-02T08:53:35.412Z,14.55
2022-11-02T08:56:01.957Z,14.47
2022-11-02T08:58:28.414Z,14.53
2022-11-02T09:00:55.521Z,14.74
2022-11-02T09:03:27.022Z,14.61
2022-11-02T09:05:59.366Z,14.57
2022-11-02T09:08:27.549Z,14.38
2022-11-02T09:10:59.308Z,14.38
2022-11-02T09:13:26.482Z,14.46
2022-11-02T09:15:55.402Z,14.45
2022-11-02T09:18:22.727Z,14.38
2022-11-02T09:20:49.856Z,14.43
2022-11-02T09:23:17.164Z,14.49
2022-11-02T09:25:44.129Z,14.60
2022-11-02T09:28:11.236Z,14.74
2022-11-02T09:30:37.804Z,14.86
2022-11-02T09:33:06.209Z,14.86
2022-11-02T09:35:35.858Z,15.04
2022-11-02T09:38:02.490Z,15.01
2022-11-02T09:40:41.209Z,15.28
2022-11-02T09:43:17.257Z,15.30
2022-11-02T09:46:15.957Z,15.31
2022-11-02T09:48:54.194Z,15.50
2022-11-02T09:51:29.565Z,15.36
2022-11-02T09:54:01.734Z,15.16
2022-11-02T09:56:31.485Z,15.32
2022-11-02T09:59:04.655Z,15.27
2022-11-02T10:01:39.806Z,15.24
2022-11-02T10:04:25.100Z,15.30
2022-11-02T10:07:17.917Z,15.52
2022-11-02T10:09:59.986Z,15.62
2022-11-02T10:12:56.422Z,15.78
2022-11-02T10:15:32.025Z,16.03
2022-11-02T10:18:00.317Z,16.15
2022-11-02T10:20:38.931Z,16.39
2022-11-02T10:23:21.550Z,16.37
2022-11-02T10:25:48.549Z,16.41
2022-11-02T10:28:19.175Z,16.44
2022-11-02T10:30:45.878Z,16.31
2022-11-02T10:33:28.227Z,16.65
2022-11-02T10:36:19.035Z,16.54
2022-11-02T10:39:07.402Z,17.08
2022-11-02T10:41:59.300Z,17.23
2022-11-02T10:44:34.609Z,17.21
2022-11-02T10:47:09.111Z,17.09
2022-11-02T10:49:57.423Z,17.32
2022-11-02T10:52:24.373Z,17.06
2022-11-02T10:54:51.764Z,16.77
2022-11-02T10:57:23.013Z,16.60
2022-11-02T11:00:22.848Z,17.35
2022-11-02T11:03:08.230Z,17.51
2022-11-02T11:05:38.103Z,17.88
2022-11-02T11:08:06.341Z,17.64
2022-11-02T11:10:38.043Z,17.36
2022-11-02T11:13:05.675Z,17.32
2022-11-02T11:15:49.759Z,17.07
2022-11-02T11:21:07.060Z,18.25
2022-11-02T11:23:33.865Z,19.19
2022-11-02T11:26:06.393Z,19.37
2022-11-02T11:28:37.675Z,19.82
2022-11-02T11:31:06.878Z,19.32
2022-11-02T11:33:53.152Z,18.54
2022-11-02T11:36:35.538Z,19.55
2022-11-02T11:39:19.483Z,20.11
2022-11-02T11:41:45.948Z,19.58
2022-11-02T11:44:14.978Z,19.60
2022-11-02T11:46:48.049Z,19.99
2022-11-02T11:49:48.133Z,19.58
2022-11-02T11:52:21.040Z,20.72
2022-11-02T11:54:58.536Z,21.28
2022-11-02T11:57:31.592Z,21.21
2022-11-02T12:00:01.792Z,20.33
2022-11-02T12:02:37.969Z,22.17
2022-11-02T12:05:07.603Z,22.03
2022-11-02T12:07:58.611Z,21.45
2022-11-02T12:10:37.409Z,21.48
2022-11-02T12:13:38.156Z,21.54
2022-11-02T12:16:07.637Z,20.81
2022-11-02T12:19:06.787Z,21.34
2022-11-02T12:21:48.548Z,21.19
2022-11-02T12:24:51.387Z,20.55
2022-11-02T12:27:45.511Z,21.78
2022-11-02T12:30:41.394Z,21.79
2022-11-02T12:33:27.702Z,21.38
2022-11-02T12:36:07.170Z,22.42
2022-11-02T12:38:46.643Z,23.92
2022-11-02T12:41:32.420Z,24.67
2022-11-02T12:44:21.746Z,23.90
2022-11-02T12:47:04.191Z,23.59
2022-11-02T12:49:52.317Z,23.80
2022-11-02T12:52:34.429Z,24.39
2022-11-02T12:55:05.673Z,24.44
2022-11-02T12:57:37.163Z,23.56
2022-11-02T13:00:21.818Z,22.68
2022-11-02T13:03:04.657Z,22.70
2022-11-02T13:05:55.631Z,22.28
2022-11-02T13:08:31.840Z,23.18
2022-11-02T13:11:03.678Z,23.50
2022-11-02T13:13:47.161Z,24.31
2022-11-02T13:16:16.768Z,23.81
2022-11-02T13:18:55.235Z,24.62
2022-11-02T13:21:41.143Z,21.81
2022-11-02T13:24:17.932Z,21.65
2022-11-02T13:26:53.216Z,21.86
2022-11-02T13:29:45.450Z,22.18
2022-11-02T13:32:34.785Z,21.87
2022-11-02T13:35:12.727Z,21.08
2022-11-02T13:37:46.218Z,21.47
2022-11-02T13:40:20.869Z,21.44
2022-11-02T13:43:09.401Z,21.33
2022-11-02T13:46:12.556Z,22.73
2022-11-02T13:48:39.340Z,23.82
2022-11-02T13:51:16.920Z,23.82
2022-11-02T13:53:58.788Z,20.38
2022-11-02T13:56:28.134Z,19.39
2022-11-02T13:59:08.515Z,20.96
2022-11-02T14:01:39.832Z,20.71
2022-11-02T14:04:12.240Z,19.34
2022-11-02T14:06:47.513Z,18.57
2022-11-02T14:09:29.738Z,18.33
2022-11-02T14:12:17.809Z,18.28
2022-11-02T14:15:13.217Z,19.59
2022-11-02T14:17:56.250Z,20.15
2022-11-02T14:20:35.796Z,20.56
2022-11-02T14:23:25.442Z,21.34
2022-11-02T14:25:54.191Z,21.32
2022-11-02T14:28:23.573Z,21.25
2022-11-02T14:31:15.182Z,20.02
2022-11-02T14:34:03.221Z,18.70
2022-11-02T14:36:47.616Z,18.00
2022-11-02T14:39:35.982Z,18.13
2022-11-02T14:42:23.147Z,18.12
2022-11-02T14:45:07.912Z,18.34
2022-11-02T14:47:38.529Z,18.31
2022-11-02T14:50:10.653Z,18.13
2022-11-02T14:52:37.663Z,18.18
2022-11-02T14:55:19.120Z,18.13
2022-11-02T14:57:54.187Z,17.95
2022-11-02T15:00:30.217Z,18.01
2022-11-02T15:02:57.335Z,17.82
2022-11-02T15:05:34.714Z,17.68
2022-11-02T15:08:27.075Z,17.62
2022-11-02T15:10:53.516Z,17.58
2022-11-02T15:13:19.900Z,17.59
2022-11-02T15:16:06.247Z,17.37
2022-11-02T15:18:35.720Z,17.18
2022-11-02T15:21:11.323Z,16.99
2022-11-02T15:23:56.095Z,16.92
2022-11-02T15:26:46.070Z,16.90
2022-11-02T15:29:15.995Z,16.71
2022-11-02T15:31:43.574Z,16.57
2022-11-02T15:34:17.639Z,16.35
2022-11-02T15:36:50.028Z,16.39
2022-11-02T15:39:18.158Z,16.27
2022-11-02T15:42:04.370Z,16.28
2022-11-02T15:44:55.885Z,16.31
2022-11-02T15:47:59.601Z,16.18
2022-11-02T15:50:53.014Z,16.13
2022-11-02T15:53:26.584Z,16.06
2022-11-02T15:56:12.967Z,16.04
2022-11-02T15:59:05.621Z,15.95
2022-11-02T16:01:32.299Z,15.98
2022-11-02T16:04:06.122Z,15.92
2022-11-02T16:06:37.952Z,15.92
2022-11-02T16:09:31.606Z,15.86
2022-11-02T16:12:13.327Z,15.76
2022-11-02T16:14:40.892Z,15.76
2022-11-02T16:17:28.339Z,15.72
2022-11-02T16:20:19.075Z,15.61
2022-11-02T16:22:57.564Z,15.64
2022-11-02T16:25:41.381Z,15.65
2022-11-02T16:28:28.701Z,15.63
2022-11-02T16:31:15.789Z,15.49
2022-11-02T16:33:56.148Z,15.45
2022-11-02T16:36:31.193Z,15.40
2022-11-02T16:39:03.619Z,15.34
2022-11-02T16:41:32.290Z,15.26
2022-11-02T16:44:03.887Z,15.18
2022-11-02T16:46:40.875Z,15.09
2022-11-02T16:49:21.567Z,15.06
2022-11-02T16:51:55.420Z,15.04
2022-11-02T16:54:34.054Z,14.99
2022-11-02T16:57:22.514Z,14.89
2022-11-02T16:59:54.351Z,14.86
2022-11-02T17:02:31.846Z,14.83
2022-11-02T17:05:02.606Z,14.66
2022-11-02T17:07:44.881Z,14.58
2022-11-02T17:10:28.877Z,14.41
2022-11-02T17:12:56.059Z,14.43
2022-11-02T17:15:25.543Z,14.45
2022-11-02T17:18:11.898Z,14.43
2022-11-02T17:20:39.538Z,14.37
2022-11-02T17:23:08.504Z,14.41
2022-11-02T17:25:40.528Z,14.39
2022-11-02T17:28:34.900Z,14.26
2022-11-02T17:31:01.900Z,14.33
2022-11-02T17:33:30.975Z,14.32
2022-11-02T17:36:05.969Z,14.32
2022-11-02T17:38:32.703Z,14.37
2022-11-02T17:41:00.558Z,14.32
2022-11-02T17:43:27.605Z,14.38
2022-11-02T17:45:59.082Z,14.36
2022-11-02T17:48:28.898Z,14.40
2022-11-02T17:50:59.489Z,14.38
2022-11-02T17:53:25.994Z,14.20
2022-11-02T17:55:54.327Z,14.21
2022-11-02T17:58:20.727Z,14.21
2022-11-02T18:00:47.313Z,14.18
2022-11-02T18:03:17.182Z,14.17
2022-11-02T18:05:48.290Z,14.11
2022-11-02T18:08:16.950Z,14.01
2022-11-02T18:10:45.609Z,13.98
2022-11-02T18:13:17.517Z,13.91
2022-11-02T18:15:44.160Z,13.89
2022-11-02T18:18:11.028Z,13.84
2022-11-02T18:20:41.583Z,13.82
2022-11-02T18:23:15.406Z,13.75
2022-11-02T18:25:42.445Z,13.75
2022-11-02T18:28:09.240Z,13.69
2022-11-02T18:30:35.841Z,13.59
2022-11-02T18:33:02.923Z,13.66
2022-11-02T18:35:29.483Z,13.62
2022-11-02T18:37:56.090Z,13.61
2022-11-02T18:40:22.716Z,13.58
2022-11-02T18:42:50.182Z,13.60
2022-11-02T18:45:17.098Z,13.53
2022-11-02T18:47:43.844Z,13.55
2022-11-02T18:50:12.623Z,13.53
2022-11-02T18:52:40.384Z,13.49
2022-11-02T18:55:07.444Z,13.55
2022-11-02T18:57:34.184Z,13.47
2022-11-02T19:00:02.889Z,13.45
2022-11-02T19:02:30.345Z,13.42
2022-11-02T19:04:57.251Z,13.34
2022-11-02T19:07:42.228Z,13.37
2022-11-02T19:10:09.903Z,13.40
2022-11-02T19:12:39.512Z,13.31
2022-11-02T19:15:06.735Z,13.35
2022-11-02T19:17:33.787Z,13.30
2022-11-02T19:20:00.270Z,13.26
2022-11-02T19:22:27.337Z,13.24
2022-11-02T19:24:53.811Z,13.22
2022-11-02T19:27:21.801Z,13.23
2022-11-02T19:29:48.712Z,13.26
2022-11-02T19:32:16.222Z,13.22
2022-11-02T19:34:43.135Z,13.17
2022-11-02T19:37:10.228Z,13.17
2022-11-02T19:39:36.770Z,13.13
2022-11-02T19:42:03.545Z,13.14
2022-11-02T19:44:30.543Z,13.16
2022-11-02T19:46:56.951Z,13.15
2022-11-02T19:49:23.697Z,13.17
2022-11-02T19:51:50.120Z,13.16
2022-11-02T19:54:19.892Z,13.13
2022-11-02T19:56:46.655Z,13.19
2022-11-02T19:59:13.447Z,13.12
2022-11-02T20:01:42.432Z,13.11
2022-11-02T20:04:09.605Z,13.16
2022-11-02T20:06:41.408Z,13.18
2022-11-02T20:09:19.744Z,13.07
2022-11-02T20:11:47.499Z,13.16
2022-11-02T20:14:15.887Z,13.19
2022-11-02T20:16:42.888Z,13.14
2022-11-02T20:19:10.084Z,13.17
2022-11-02T20:21:41.619Z,13.16
2022-11-02T20:24:09.516Z,13.22
2022-11-02T20:26:38.086Z,13.22
2022-11-02T20:29:06.672Z,13.19
2022-11-02T20:31:36.388Z,13.20
2022-11-02T20:34:04.752Z,13.27
2022-11-02T20:36:31.236Z,13.22
2022-11-02T20:38:58.214Z,13.24
2022-11-02T20:41:26.091Z,13.24
2022-11-02T20:43:55.093Z,13.23
2022-11-02T20:46:42.943Z,13.31
2022-11-02T20:49:22.062Z,13.30
2022-11-02T20:51:56.151Z,13.28
2022-11-02T20:54:22.587Z,13.26
2022-11-02T20:56:49.939Z,13.22
2022-11-02T20:59:16.502Z,13.25
2022-11-02T21:01:43.088Z,13.23
2022-11-02T21:04:11.776Z,13.31
2022-11-02T21:06:40.431Z,13.26
2022-11-02T21:09:09.262Z,13.28
2022-11-02T21:11:57.392Z,13.27
2022-11-02T21:14:23.963Z,13.28
2022-11-02T21:16:50.412Z,13.26
2022-11-02T21:19:16.828Z,13.28
2022-11-02T21:21:43.216Z,13.18
2022-11-02T21:24:09.858Z,13.25
2022-11-02T21:26:36.584Z,13.25
2022-11-02T21:29:03.046Z,13.26
2022-11-02T21:31:29.503Z,13.22
2022-11-02T21:33:56.006Z,13.17
2022-11-02T21:36:22.394Z,13.21
2022-11-02T21:38:48.803Z,13.25
2022-11-02T21:41:19.484Z,13.18
2022-11-02T21:43:46.243Z,13.18
2022-11-02T21:46:12.830Z,13.11
2022-11-02T21:48:39.336Z,13.07
2022-11-02T21:51:17.617Z,13.14
2022-11-02T21:53:45.413Z,13.15
2022-11-02T21:56:17.910Z,13.09
2022-11-02T21:58:46.501Z,13.13
2022-11-02T22:01:38.830Z,13.10
2022-11-02T22:04:06.539Z,13.10
2022-11-02T22:06:33.573Z,13.04
2022-11-02T22:09:01.033Z,13.03
2022-11-02T22:11:28.112Z,13.02
2022-11-02T22:13:56.566Z,13.00
2022-11-02T22:16:25.847Z,13.00
2022-11-02T22:18:57.599Z,13.06
2022-11-02T22:21:26.014Z,13.05
2022-11-02T22:23:53.095Z,13.04
2022-11-02T22:26:22.014Z,13.11
2022-11-02T22:28:49.108Z,13.08
2022-11-02T22:31:27.336Z,13.04
2022-11-02T22:33:55.872Z,13.03
2022-11-02T22:36:24.398Z,13.08
2022-11-02T22:38:53.374Z,13.15
2022-11-02T22:41:34.309Z,13.07
2022-11-02T22:44:06.183Z,13.22
2022-11-02T22:46:36.318Z,13.14
2022-11-02T22:49:04.599Z,13.20
2022-11-02T22:51:39.887Z,13.13
2022-11-02T22:54:09.719Z,13.24
2022-11-02T22:56:36.505Z,13.21
2022-11-02T22:59:03.701Z,13.26
2022-11-02T23:01:31.269Z,13.29
2022-11-02T23:03:58.279Z,13.24
2022-11-02T23:06:25.622Z,13.26
2022-11-02T23:08:53.889Z,13.29
2022-11-02T23:11:23.403Z,13.27
2022-11-02T23:13:59.079Z,13.29
2022-11-02T23:16:26.883Z,13.33
2022-11-02T23:19:12.045Z,13.28
2022-11-02T23:21:39.901Z,13.29
2022-11-02T23:24:25.705Z,13.32
2022-11-02T23:26:55.343Z,13.27
2022-11-02T23:29:40.976Z,13.29
2022-11-02T23:32:27.959Z,13.28
2022-11-02T23:35:14.625Z,13.30
2022-11-02T23:37:42.090Z,13.23
2022-11-02T23:40:09.472Z,13.25
2022-11-02T23:42:36.194Z,13.22
2022-11-02T23:45:03.159Z,13.20
2022-11-02T23:47:48.996Z,13.23
2022-11-02T23:50:39.584Z,13.21
2022-11-02T23:53:24.990Z,13.28
2022-11-02T23:56:10.752Z,13.31
2022-11-02T23:58:38.183Z,13.25
